Terminal Aerodrome Forecast
Issued by NWS

Home | Current Version | Previous Version | Text Only | Print | Product List | Glossary On
Versions: 1 2 3 4 5 6 7 8 9 10 11 12 13 14 15 16 17 18 19 20 21
016
FTUS46 KPDT 111140
TAFRDM
TAF
KRDM 111140Z 1112/1212 18007KT P6SM SCT050 SCT100
     FM111800 21013G20KT P6SM VCSH BKN045 OVC080
     FM120000 24010KT 6SM -SHSN OVC040
     FM120700 27006KT 4SM -SN BR BKN025 OVC035=

USA.gov is the U.S. government's official web portal to all federal, state and local government web resources and services.